Time;durP1;ratioP1;P1;durP2;ratioP2;P2;SDS_P1;SDS_P2;PMS_P1;PMS_P2;Temp;Humidity;BMP_temperature;BMP_pressure;BME280_temperature;BME280_humidity;BME280_pressure;Samples;Min_cycle;Max_cycle;Signal;HPM_P1;HPM_P2
2021/07/06 00:02:19;;;;;;;6.40;2.40;;;;;;;;;;5067034;28;20209;-63
2021/07/06 00:04:47;;;;;;;3.73;2.30;;;;;;;;;;5050471;28;20189;-62
2021/07/06 00:07:12;;;;;;;3.67;2.10;;;;;;;;;;5065775;28;20209;-61
2021/07/06 00:09:38;;;;;;;5.13;2.50;;;;;;;;;;5059419;28;20188;-60
2021/07/06 00:12:04;;;;;;;4.43;2.20;;;;;;;;;;5049332;28;20706;-61
2021/07/06 00:14:30;;;;;;;3.03;2.38;;;;;;;;;;5057352;28;20207;-63
2021/07/06 00:16:55;;;;;;;4.47;2.60;;;;;;;;;;5050921;28;20824;-62
2021/07/06 00:19:20;;;;;;;2.67;2.30;;;;;;;;;;5064376;28;20553;-63
2021/07/06 00:21:45;;;;;;;2.97;2.50;;;;;;;;;;5063356;28;20218;-60
2021/07/06 00:24:11;;;;;;;5.30;2.67;;;;;;;;;;5052857;28;20872;-62
2021/07/06 00:26:36;;;;;;;4.67;2.40;;;;;;;;;;5060810;28;20221;-64
2021/07/06 00:29:02;;;;;;;4.28;2.45;;;;;;;;;;5048699;28;20181;-61
2021/07/06 00:31:27;;;;;;;6.93;2.80;;;;;;;;;;5050212;28;20755;-63
2021/07/06 00:33:53;;;;;;;8.87;2.37;;;;;;;;;;5066424;28;20276;-62
2021/07/06 00:36:18;;;;;;;2.63;2.40;;;;;;;;;;5064531;28;20196;-65
2021/07/06 00:38:43;;;;;;;4.28;2.42;;;;;;;;;;5064769;28;20238;-61
2021/07/06 00:41:09;;;;;;;3.77;2.47;;;;;;;;;;5061091;28;20190;-62
2021/07/06 00:43:37;;;;;;;5.43;2.80;;;;;;;;;;5050727;28;20208;-63
2021/07/06 00:46:04;;;;;;;3.00;2.20;;;;;;;;;;5066390;28;20189;-60
2021/07/06 00:48:30;;;;;;;4.53;2.30;;;;;;;;;;5063914;28;20213;-60
2021/07/06 00:50:56;;;;;;;3.30;2.40;;;;;;;;;;5055933;28;20680;-61
2021/07/06 00:53:22;;;;;;;4.67;2.30;;;;;;;;;;5063163;28;20209;-63
2021/07/06 00:55:50;;;;;;;7.03;2.80;;;;;;;;;;5064120;28;20209;-61
2021/07/06 00:58:17;;;;;;;3.73;2.60;;;;;;;;;;5066607;28;20637;-60
2021/07/06 01:00:42;;;;;;;5.83;2.40;;;;;;;;;;5066092;28;20650;-62
2021/07/06 01:03:08;;;;;;;7.63;2.93;;;;;;;;;;5056804;28;20236;-62
2021/07/06 01:05:33;;;;;;;5.67;2.33;;;;;;;;;;5066738;28;20193;-64
2021/07/06 01:07:58;;;;;;;6.70;2.53;;;;;;;;;;5058283;28;20259;-63
2021/07/06 01:10:25;;;;;;;6.67;2.50;;;;;;;;;;5063917;28;20197;-63
2021/07/06 01:12:53;;;;;;;6.70;2.23;;;;;;;;;;5063789;28;20209;-63
2021/07/06 01:15:22;;;;;;;10.20;2.50;;;;;;;;;;5059292;28;20565;-63
2021/07/06 01:17:58;;;;;;;5.77;2.40;;;;;;;;;;5066920;28;20212;-61
2021/07/06 01:20:24;;;;;;;6.63;2.27;;;;;;;;;;5048110;28;20192;-63
2021/07/06 01:22:50;;;;;;;4.93;2.17;;;;;;;;;;5059318;28;20894;-62
2021/07/06 01:25:15;;;;;;;2.87;1.73;;;;;;;;;;5071256;28;20185;-62
2021/07/06 01:27:41;;;;;;;5.97;2.33;;;;;;;;;;5070253;28;20216;-62
2021/07/06 01:30:10;;;;;;;4.83;2.13;;;;;;;;;;5066050;28;20190;-64
2021/07/06 01:32:39;;;;;;;6.93;3.10;;;;;;;;;;5064895;28;20251;-64
2021/07/06 01:35:05;;;;;;;4.67;2.77;;;;;;;;;;5068037;28;20193;-62
2021/07/06 01:37:30;;;;;;;9.23;3.37;;;;;;;;;;5065085;28;20192;-64
2021/07/06 01:39:55;;;;;;;5.27;2.57;;;;;;;;;;5068782;28;20247;-63
2021/07/06 01:42:22;;;;;;;6.77;2.57;;;;;;;;;;5060597;28;20592;-62
2021/07/06 01:45:01;;;;;;;6.90;2.90;;;;;;;;;;5070422;28;20562;-64
2021/07/06 01:47:27;;;;;;;1.57;1.47;;;;;;;;;;5063610;28;20788;-63
2021/07/06 01:49:52;;;;;;;6.70;2.40;;;;;;;;;;5045861;28;20227;-63
2021/07/06 01:52:17;;;;;;;11.33;2.87;;;;;;;;;;5060302;28;20300;-61
2021/07/06 01:54:43;;;;;;;7.10;2.77;;;;;;;;;;5060638;28;20268;-62
2021/07/06 01:57:13;;;;;;;4.17;2.50;;;;;;;;;;5068246;28;20181;-62
2021/07/06 01:59:38;;;;;;;3.37;2.43;;;;;;;;;;5049840;28;20193;-63
2021/07/06 02:02:03;;;;;;;9.73;2.40;;;;;;;;;;5053221;28;20209;-63
2021/07/06 02:04:30;;;;;;;4.70;2.07;;;;;;;;;;5049191;28;20186;-63
2021/07/06 02:06:55;;;;;;;2.00;1.80;;;;;;;;;;5066600;28;20217;-61
2021/07/06 02:09:20;;;;;;;3.57;1.90;;;;;;;;;;5052577;28;20189;-63
2021/07/06 02:11:46;;;;;;;3.77;1.70;;;;;;;;;;5070067;28;20730;-62
2021/07/06 02:14:11;;;;;;;4.87;1.80;;;;;;;;;;5069200;28;20200;-62
2021/07/06 02:16:37;;;;;;;3.10;2.00;;;;;;;;;;5051395;28;20705;-62
2021/07/06 02:19:02;;;;;;;3.87;1.60;;;;;;;;;;5070584;28;20276;-62
2021/07/06 02:21:28;;;;;;;3.13;1.57;;;;;;;;;;5068123;28;20283;-62
2021/07/06 02:23:53;;;;;;;4.00;1.90;;;;;;;;;;5067429;28;20227;-61
2021/07/06 02:26:18;;;;;;;5.80;2.10;;;;;;;;;;5060634;28;20207;-63
2021/07/06 02:28:44;;;;;;;3.73;1.80;;;;;;;;;;5069626;28;20239;-64
2021/07/06 02:31:09;;;;;;;1.63;1.40;;;;;;;;;;5067556;28;20218;-62
2021/07/06 02:33:35;;;;;;;1.80;1.70;;;;;;;;;;5068359;28;20281;-62
2021/07/06 02:36:06;;;;;;;2.13;1.17;;;;;;;;;;5061213;28;20193;-62
2021/07/06 02:38:32;;;;;;;3.13;1.80;;;;;;;;;;5068135;28;20193;-63
2021/07/06 02:40:58;;;;;;;7.40;2.13;;;;;;;;;;5090823;22;20740;-59
2021/07/06 02:43:23;;;;;;;1.60;1.50;;;;;;;;;;5067322;28;20242;-58
2021/07/06 02:45:49;;;;;;;2.33;1.30;;;;;;;;;;5054923;28;20246;-59
2021/07/06 02:48:15;;;;;;;1.40;1.30;;;;;;;;;;5049282;28;20213;-59
2021/07/06 02:50:41;;;;;;;2.83;1.50;;;;;;;;;;5041531;28;20403;-59
2021/07/06 02:53:10;;;;;;;4.43;1.65;;;;;;;;;;5047805;28;20198;-58
2021/07/06 02:55:37;;;;;;;2.93;1.83;;;;;;;;;;5048373;28;20186;-59
2021/07/06 02:58:02;;;;;;;3.50;1.70;;;;;;;;;;5048542;28;20320;-59
2021/07/06 03:00:29;;;;;;;4.73;1.80;;;;;;;;;;5048277;28;20269;-59
2021/07/06 03:03:00;;;;;;;4.87;2.10;;;;;;;;;;5031643;28;20687;-59
2021/07/06 03:05:30;;;;;;;4.43;2.10;;;;;;;;;;5048522;28;20201;-59
2021/07/06 03:07:57;;;;;;;2.53;1.60;;;;;;;;;;5041204;28;20205;-60
2021/07/06 03:10:28;;;;;;;2.43;1.40;;;;;;;;;;5049010;28;20194;-58
2021/07/06 03:12:54;;;;;;;2.53;1.37;;;;;;;;;;5046133;28;20260;-59
2021/07/06 03:15:22;;;;;;;2.60;1.73;;;;;;;;;;5044272;28;20332;-59
2021/07/06 03:17:48;;;;;;;4.87;1.77;;;;;;;;;;5046848;28;20232;-59
2021/07/06 03:20:16;;;;;;;4.03;1.63;;;;;;;;;;5028581;28;20182;-58
2021/07/06 03:22:41;;;;;;;2.80;1.53;;;;;;;;;;5039766;28;20309;-59
2021/07/06 03:25:09;;;;;;;5.70;1.83;;;;;;;;;;5048373;28;20273;-59
2021/07/06 03:27:38;;;;;;;5.63;1.93;;;;;;;;;;5049532;28;20221;-58
2021/07/06 03:30:08;;;;;;;2.03;1.63;;;;;;;;;;5031491;28;20713;-58
2021/07/06 03:32:34;;;;;;;6.97;2.07;;;;;;;;;;5030577;28;20235;-59
2021/07/06 03:35:01;;;;;;;2.33;1.53;;;;;;;;;;5030328;28;20246;-59
2021/07/06 03:37:26;;;;;;;2.77;2.03;;;;;;;;;;5047267;28;20755;-59
2021/07/06 03:39:51;;;;;;;3.53;1.90;;;;;;;;;;5047674;28;20285;-59
2021/07/06 03:42:17;;;;;;;4.20;2.40;;;;;;;;;;5047376;28;20218;-60
2021/07/06 03:44:42;;;;;;;3.53;1.70;;;;;;;;;;5039747;28;20194;-59
2021/07/06 03:47:08;;;;;;;4.23;1.90;;;;;;;;;;5047813;28;20214;-59
2021/07/06 03:49:33;;;;;;;4.00;1.90;;;;;;;;;;5028005;28;20811;-59
2021/07/06 03:51:58;;;;;;;4.23;1.90;;;;;;;;;;5041634;28;20221;-59
2021/07/06 03:54:24;;;;;;;2.03;1.60;;;;;;;;;;5047847;28;20638;-59
2021/07/06 03:56:49;;;;;;;2.83;1.83;;;;;;;;;;5030335;28;20186;-59
2021/07/06 03:59:14;;;;;;;2.33;1.97;;;;;;;;;;5029852;28;20185;-58
2021/07/06 04:01:40;;;;;;;6.33;2.10;;;;;;;;;;5043977;28;20210;-60
2021/07/06 04:04:05;;;;;;;1.93;1.67;;;;;;;;;;5047693;28;20277;-59
2021/07/06 04:06:31;;;;;;;1.70;1.60;;;;;;;;;;5028380;28;20248;-59
2021/07/06 04:08:56;;;;;;;0.70;0.70;;;;;;;;;;5043516;28;20194;-59
2021/07/06 04:11:21;;;;;;;1.53;1.17;;;;;;;;;;5047260;28;20296;-58
2021/07/06 04:13:47;;;;;;;4.87;1.60;;;;;;;;;;5047126;28;20212;-59
2021/07/06 04:16:13;;;;;;;1.77;1.17;;;;;;;;;;5038684;28;20200;-58
2021/07/06 04:18:38;;;;;;;3.40;1.93;;;;;;;;;;5030658;28;20219;-59
2021/07/06 04:21:06;;;;;;;1.80;1.70;;;;;;;;;;5045894;28;20778;-59
2021/07/06 04:23:35;;;;;;;5.67;1.93;;;;;;;;;;5047001;28;20193;-59
2021/07/06 04:26:01;;;;;;;1.90;1.80;;;;;;;;;;5046459;28;20232;-59
2021/07/06 04:28:26;;;;;;;2.20;1.63;;;;;;;;;;5014226;28;20237;-60
2021/07/06 04:30:51;;;;;;;1.80;1.70;;;;;;;;;;5036171;28;20596;-59
2021/07/06 04:33:17;;;;;;;4.10;1.80;;;;;;;;;;5045331;28;21851;-59
2021/07/06 04:35:42;;;;;;;2.33;1.60;;;;;;;;;;5025939;28;20194;-60
2021/07/06 04:38:07;;;;;;;4.20;1.93;;;;;;;;;;5030853;28;20193;-57
2021/07/06 04:40:32;;;;;;;1.60;1.50;;;;;;;;;;5038136;28;20194;-59
2021/07/06 04:42:58;;;;;;;1.80;1.70;;;;;;;;;;5036232;28;20210;-58
2021/07/06 04:45:23;;;;;;;2.20;1.50;;;;;;;;;;5034707;28;20189;-59
2021/07/06 04:47:49;;;;;;;2.25;1.98;;;;;;;;;;5034265;28;20201;-58
2021/07/06 04:50:15;;;;;;;1.83;1.40;;;;;;;;;;5025996;28;20190;-58
2021/07/06 04:52:45;;;;;;;4.13;1.60;;;;;;;;;;5041745;28;20212;-57
2021/07/06 04:55:11;;;;;;;1.70;1.60;;;;;;;;;;5048277;28;20181;-59
2021/07/06 04:57:36;;;;;;;3.27;1.43;;;;;;;;;;5050319;28;20201;-58
2021/07/06 05:00:03;;;;;;;6.22;1.73;;;;;;;;;;5047753;28;20265;-58
2021/07/06 05:02:29;;;;;;;1.73;1.52;;;;;;;;;;5047397;28;20201;-59
2021/07/06 05:04:54;;;;;;;1.25;1.15;;;;;;;;;;5050956;28;20202;-58
2021/07/06 05:07:20;;;;;;;1.20;1.10;;;;;;;;;;5046180;28;20202;-60
2021/07/06 05:09:46;;;;;;;2.22;1.63;;;;;;;;;;5048855;28;20221;-59
2021/07/06 05:12:11;;;;;;;0.98;0.98;;;;;;;;;;5058899;28;20956;-59
2021/07/06 05:14:36;;;;;;;2.45;1.20;;;;;;;;;;5036313;28;20197;-60
2021/07/06 05:17:03;;;;;;;1.42;1.15;;;;;;;;;;5045677;28;20182;-58
2021/07/06 05:19:28;;;;;;;0.90;0.90;;;;;;;;;;5031555;28;20779;-59
2021/07/06 05:21:53;;;;;;;2.08;1.20;;;;;;;;;;5046694;28;20271;-59
2021/07/06 05:24:18;;;;;;;1.67;1.35;;;;;;;;;;5048495;28;20186;-59
2021/07/06 05:26:44;;;;;;;1.95;1.38;;;;;;;;;;5049010;28;21185;-58
2021/07/06 05:29:09;;;;;;;1.50;1.40;;;;;;;;;;5049537;28;20186;-59
2021/07/06 05:31:34;;;;;;;2.45;1.30;;;;;;;;;;5047612;28;20198;-59
2021/07/06 05:34:00;;;;;;;1.40;1.30;;;;;;;;;;5051778;28;20286;-59
2021/07/06 05:36:25;;;;;;;2.00;1.23;;;;;;;;;;5026687;28;20190;-59
2021/07/06 05:38:52;;;;;;;1.35;1.20;;;;;;;;;;5049410;28;20715;-59
2021/07/06 05:41:18;;;;;;;1.17;1.08;;;;;;;;;;5049951;28;20244;-59
2021/07/06 05:43:44;;;;;;;3.30;1.42;;;;;;;;;;5043642;28;20619;-59
2021/07/06 05:46:09;;;;;;;1.50;1.35;;;;;;;;;;5050427;28;20193;-59
2021/07/06 05:48:34;;;;;;;1.30;1.00;;;;;;;;;;5050659;28;20247;-59
2021/07/06 05:51:00;;;;;;;1.30;1.20;;;;;;;;;;5050787;28;20627;-58
2021/07/06 05:53:25;;;;;;;1.30;1.20;;;;;;;;;;5045888;28;20190;-59
2021/07/06 05:55:50;;;;;;;2.58;1.20;;;;;;;;;;5032630;28;20711;-58
2021/07/06 05:58:16;;;;;;;1.52;1.20;;;;;;;;;;5049037;28;20185;-59
2021/07/06 06:00:42;;;;;;;2.92;1.10;;;;;;;;;;5049397;28;20741;-58
2021/07/06 06:03:10;;;;;;;0.95;0.95;;;;;;;;;;5040136;28;20190;-59
2021/07/06 06:05:36;;;;;;;1.75;1.30;;;;;;;;;;5032896;28;20709;-59
2021/07/06 06:08:01;;;;;;;3.55;1.65;;;;;;;;;;5037766;28;20226;-59
2021/07/06 06:10:27;;;;;;;3.10;1.30;;;;;;;;;;5048156;28;20222;-60
2021/07/06 06:12:52;;;;;;;1.33;1.00;;;;;;;;;;5032094;28;20190;-59
2021/07/06 06:15:17;;;;;;;1.75;1.40;;;;;;;;;;5032791;28;20646;-59
2021/07/06 06:17:43;;;;;;;1.30;1.20;;;;;;;;;;5050108;28;20193;-59
2021/07/06 06:20:09;;;;;;;2.40;1.15;;;;;;;;;;5031056;28;20187;-58
2021/07/06 06:22:35;;;;;;;1.02;0.95;;;;;;;;;;5044924;28;20209;-58
2021/07/06 06:25:01;;;;;;;3.88;1.23;;;;;;;;;;5049315;28;20204;-59
2021/07/06 06:27:26;;;;;;;2.75;1.20;;;;;;;;;;5045266;28;20203;-59
2021/07/06 06:29:51;;;;;;;1.42;1.02;;;;;;;;;;5043345;28;20213;-59
2021/07/06 06:32:17;;;;;;;3.38;1.30;;;;;;;;;;5049013;28;20289;-58
2021/07/06 06:34:44;;;;;;;1.20;1.10;;;;;;;;;;5039357;28;20834;-59
2021/07/06 06:37:09;;;;;;;2.13;1.08;;;;;;;;;;5030639;28;20265;-60
2021/07/06 06:39:34;;;;;;;1.10;1.00;;;;;;;;;;5041505;28;20182;-59
2021/07/06 06:42:00;;;;;;;1.25;1.05;;;;;;;;;;5044365;28;20328;-59
2021/07/06 06:44:25;;;;;;;4.53;1.38;;;;;;;;;;5034330;28;20186;-59
2021/07/06 06:46:50;;;;;;;1.05;0.95;;;;;;;;;;5044991;28;20202;-59
2021/07/06 06:49:16;;;;;;;1.80;1.27;;;;;;;;;;5041631;28;20190;-59
2021/07/06 06:51:41;;;;;;;1.20;1.10;;;;;;;;;;5039783;28;20207;-59
2021/07/06 06:54:06;;;;;;;2.78;1.27;;;;;;;;;;5045115;28;20185;-59
2021/07/06 06:56:32;;;;;;;9.48;1.83;;;;;;;;;;5036763;28;20211;-59
2021/07/06 06:58:57;;;;;;;2.03;1.05;;;;;;;;;;5038241;28;20190;-59
2021/07/06 07:01:23;;;;;;;3.63;1.23;;;;;;;;;;5045162;28;20218;-59
2021/07/06 07:03:49;;;;;;;1.60;1.08;;;;;;;;;;5042233;28;20190;-59
2021/07/06 07:06:14;;;;;;;2.15;1.30;;;;;;;;;;5030934;28;20193;-59
2021/07/06 07:08:39;;;;;;;1.30;1.20;;;;;;;;;;5043548;28;20721;-60
2021/07/06 07:11:05;;;;;;;2.20;0.68;;;;;;;;;;5033578;28;20702;-60
2021/07/06 07:13:30;;;;;;;1.10;1.00;;;;;;;;;;5048154;28;20271;-59
2021/07/06 07:15:55;;;;;;;1.77;1.33;;;;;;;;;;5039274;28;20676;-59
2021/07/06 07:18:20;;;;;;;1.10;1.00;;;;;;;;;;5048349;28;20189;-60
2021/07/06 07:20:46;;;;;;;0.90;0.90;;;;;;;;;;5048272;28;20283;-60
2021/07/06 07:23:11;;;;;;;1.30;1.20;;;;;;;;;;5042342;28;20654;-58
2021/07/06 07:25:37;;;;;;;2.22;1.00;;;;;;;;;;5035241;28;20191;-60
2021/07/06 07:28:03;;;;;;;3.55;1.05;;;;;;;;;;5027781;28;20221;-61
2021/07/06 07:30:28;;;;;;;1.00;0.93;;;;;;;;;;5040619;28;20268;-61
2021/07/06 07:32:53;;;;;;;1.70;1.20;;;;;;;;;;5037489;28;20730;-60
2021/07/06 07:35:20;;;;;;;0.85;0.85;;;;;;;;;;5027657;28;20213;-61
2021/07/06 07:37:45;;;;;;;1.77;1.10;;;;;;;;;;5035800;28;20201;-61
2021/07/06 07:40:12;;;;;;;2.65;1.00;;;;;;;;;;5027902;28;20185;-60
2021/07/06 07:42:38;;;;;;;3.55;1.30;;;;;;;;;;5036597;28;20700;-61
2021/07/06 07:45:04;;;;;;;3.15;1.08;;;;;;;;;;5034904;28;20201;-62
2021/07/06 07:47:30;;;;;;;1.55;1.00;;;;;;;;;;5003112;28;20210;-61
2021/07/06 07:49:55;;;;;;;1.25;1.15;;;;;;;;;;5022243;28;20201;-62
2021/07/06 07:52:20;;;;;;;2.17;1.50;;;;;;;;;;5043627;28;20210;-61
2021/07/06 07:54:46;;;;;;;1.95;1.05;;;;;;;;;;5043760;28;20193;-60
2021/07/06 07:57:11;;;;;;;1.60;1.30;;;;;;;;;;5027750;28;20179;-61
2021/07/06 07:59:38;;;;;;;1.40;1.30;;;;;;;;;;5046996;28;20534;-61
2021/07/06 08:02:03;;;;;;;1.65;1.20;;;;;;;;;;5033671;28;20678;-61
2021/07/06 08:04:28;;;;;;;1.60;1.50;;;;;;;;;;5033976;28;20187;-60
2021/07/06 08:06:54;;;;;;;2.03;1.27;;;;;;;;;;5047435;28;20234;-60
2021/07/06 08:09:19;;;;;;;4.45;1.33;;;;;;;;;;5044470;28;20228;-61
2021/07/06 08:11:44;;;;;;;3.33;1.60;;;;;;;;;;5046521;28;20206;-60
2021/07/06 08:14:10;;;;;;;2.63;1.30;;;;;;;;;;5047218;28;20281;-60
2021/07/06 08:16:35;;;;;;;4.88;1.42;;;;;;;;;;5048234;28;20190;-60
2021/07/06 08:19:00;;;;;;;2.42;1.42;;;;;;;;;;5048419;28;20186;-61
2021/07/06 08:21:26;;;;;;;1.27;1.17;;;;;;;;;;5027762;28;20309;-60
2021/07/06 08:23:51;;;;;;;1.35;1.17;;;;;;;;;;5037104;28;20193;-60
2021/07/06 08:26:17;;;;;;;1.30;1.20;;;;;;;;;;5040279;28;20189;-60
2021/07/06 08:28:45;;;;;;;1.45;1.30;;;;;;;;;;5039151;28;20248;-60
2021/07/06 08:31:10;;;;;;;1.88;1.30;;;;;;;;;;5040655;28;20213;-59
2021/07/06 08:33:35;;;;;;;1.52;1.42;;;;;;;;;;5040186;28;20268;-59
2021/07/06 08:36:01;;;;;;;1.52;1.42;;;;;;;;;;5036299;28;20174;-60
2021/07/06 08:38:26;;;;;;;1.40;1.27;;;;;;;;;;5029723;28;20264;-60
2021/07/06 08:40:51;;;;;;;1.02;1.02;;;;;;;;;;5024128;28;20209;-60
2021/07/06 08:43:18;;;;;;;1.58;1.48;;;;;;;;;;5043690;28;20268;-60
2021/07/06 08:45:44;;;;;;;1.17;1.13;;;;;;;;;;5039879;28;20181;-60
2021/07/06 08:48:12;;;;;;;1.85;1.40;;;;;;;;;;5038652;28;20702;-59
2021/07/06 08:50:38;;;;;;;1.42;1.00;;;;;;;;;;5034423;28;20273;-60
2021/07/06 08:53:04;;;;;;;1.38;1.27;;;;;;;;;;5036223;28;20313;-60
2021/07/06 08:55:29;;;;;;;1.30;1.20;;;;;;;;;;5040465;28;20595;-60
2021/07/06 08:57:54;;;;;;;2.17;1.10;;;;;;;;;;5033508;28;20190;-60
2021/07/06 09:00:21;;;;;;;3.70;1.38;;;;;;;;;;5024285;28;20190;-59
2021/07/06 09:02:56;;;;;;;0.95;0.93;;;;;;;;;;5046899;28;20695;-59
2021/07/06 09:05:23;;;;;;;2.17;1.30;;;;;;;;;;5044903;28;20189;-59
2021/07/06 09:07:48;;;;;;;2.13;1.30;;;;;;;;;;5040771;28;20244;-58
2021/07/06 09:10:15;;;;;;;1.27;1.17;;;;;;;;;;5044876;28;20222;-59
2021/07/06 09:12:41;;;;;;;1.65;1.30;;;;;;;;;;5048226;28;20858;-59
2021/07/06 09:15:23;;;;;;;1.40;1.15;;;;;;;;;;5043149;28;20197;-58
2021/07/06 09:18:10;;;;;;;2.70;1.20;;;;;;;;;;5041730;28;20272;-58
2021/07/06 09:20:38;;;;;;;0.90;0.90;;;;;;;;;;5042398;28;20614;-58
2021/07/06 09:23:27;;;;;;;1.30;1.00;;;;;;;;;;5044658;28;20258;-58
2021/07/06 09:26:12;;;;;;;1.67;1.13;;;;;;;;;;5012957;28;20218;-58
2021/07/06 09:28:40;;;;;;;1.30;1.20;;;;;;;;;;5025469;28;20202;-59
2021/07/06 09:31:32;;;;;;;1.13;1.10;;;;;;;;;;5024308;28;20215;-59
2021/07/06 09:34:00;;;;;;;1.13;1.02;;;;;;;;;;5031289;28;20316;-57
2021/07/06 09:36:36;;;;;;;1.10;0.93;;;;;;;;;;5032143;28;20901;-57
2021/07/06 09:39:16;;;;;;;1.13;1.02;;;;;;;;;;5036689;28;20190;-58
2021/07/06 09:41:54;;;;;;;1.00;1.00;;;;;;;;;;5045423;28;20206;-59
2021/07/06 09:44:26;;;;;;;1.85;1.30;;;;;;;;;;5049666;28;20209;-56
2021/07/06 09:46:54;;;;;;;2.30;1.17;;;;;;;;;;5045291;28;20193;-59
2021/07/06 09:49:22;;;;;;;1.30;1.20;;;;;;;;;;5039138;28;20185;-58
2021/07/06 09:51:48;;;;;;;1.65;1.10;;;;;;;;;;5040767;28;20210;-57
2021/07/06 09:54:31;;;;;;;1.48;1.00;;;;;;;;;;5020041;28;20240;-58
2021/07/06 09:57:05;;;;;;;1.20;1.10;;;;;;;;;;5035236;28;20269;-58
2021/07/06 09:59:31;;;;;;;1.35;1.23;;;;;;;;;;5036884;28;20274;-58
2021/07/06 10:01:59;;;;;;;1.10;1.00;;;;;;;;;;5039504;28;20300;-57
2021/07/06 10:04:25;;;;;;;1.08;0.98;;;;;;;;;;5036942;28;20191;-58
2021/07/06 10:06:51;;;;;;;1.20;1.10;;;;;;;;;;5038115;28;20735;-58
2021/07/06 10:09:17;;;;;;;1.10;1.00;;;;;;;;;;5049998;28;20185;-59
2021/07/06 10:11:43;;;;;;;5.10;1.00;;;;;;;;;;5034840;28;20209;-59
2021/07/06 10:14:09;;;;;;;1.30;1.10;;;;;;;;;;5044979;28;20194;-58
2021/07/06 10:16:37;;;;;;;1.50;1.10;;;;;;;;;;5036734;28;20197;-58
2021/07/06 10:19:03;;;;;;;1.20;1.10;;;;;;;;;;5040185;28;20190;-58
2021/07/06 10:21:29;;;;;;;2.20;1.08;;;;;;;;;;5039276;28;20205;-57
2021/07/06 10:23:55;;;;;;;1.88;1.00;;;;;;;;;;5035676;28;20277;-59
2021/07/06 10:26:25;;;;;;;1.13;1.02;;;;;;;;;;5026084;28;20216;-57
2021/07/06 10:28:52;;;;;;;1.00;0.90;;;;;;;;;;5044017;28;20647;-58
2021/07/06 10:31:17;;;;;;;1.25;1.15;;;;;;;;;;5038341;28;20249;-58
2021/07/06 10:33:44;;;;;;;1.25;1.10;;;;;;;;;;5039346;28;20213;-58
2021/07/06 10:36:12;;;;;;;1.45;1.10;;;;;;;;;;5036219;28;20182;-58
2021/07/06 10:38:40;;;;;;;1.20;1.10;;;;;;;;;;5041613;28;21845;-58
2021/07/06 10:41:20;;;;;;;1.40;1.30;;;;;;;;;;5046137;28;20593;-57
2021/07/06 10:43:46;;;;;;;1.23;1.10;;;;;;;;;;5046828;28;20247;-57
2021/07/06 10:46:20;;;;;;;1.25;1.00;;;;;;;;;;5049178;28;20666;-56
2021/07/06 10:48:49;;;;;;;1.20;1.10;;;;;;;;;;5042702;28;20240;-57
2021/07/06 10:51:37;;;;;;;2.33;1.20;;;;;;;;;;5030929;28;20281;-57
2021/07/06 10:54:17;;;;;;;2.08;1.20;;;;;;;;;;5053059;28;20255;-57
2021/07/06 10:56:45;;;;;;;1.48;1.20;;;;;;;;;;5039366;28;20306;-57
2021/07/06 10:59:24;;;;;;;1.08;1.08;;;;;;;;;;5026305;28;20194;-58
2021/07/06 11:01:50;;;;;;;1.70;1.30;;;;;;;;;;5048868;28;20205;-56
2021/07/06 11:04:42;;;;;;;1.20;1.10;;;;;;;;;;5040794;28;20189;-58
2021/07/06 11:07:11;;;;;;;1.55;1.00;;;;;;;;;;5024266;28;20209;-57
2021/07/06 11:09:36;;;;;;;5.53;1.20;;;;;;;;;;5033440;28;20191;-56
2021/07/06 11:12:30;;;;;;;4.68;1.58;;;;;;;;;;5045546;28;20247;-58
2021/07/06 11:15:05;;;;;;;10.30;2.50;;;;;;;;;;5043759;28;20186;-60
2021/07/06 11:17:41;;;;;;;9.25;2.53;;;;;;;;;;5049250;28;20721;-60
2021/07/06 11:20:17;;;;;;;10.77;2.58;;;;;;;;;;5037405;28;20197;-59
2021/07/06 11:22:56;;;;;;;3.30;2.45;;;;;;;;;;5035566;28;20763;-57
2021/07/06 11:25:24;;;;;;;4.03;2.38;;;;;;;;;;5037779;28;20564;-58
2021/07/06 11:27:57;;;;;;;5.28;2.47;;;;;;;;;;5018982;28;20208;-60
2021/07/06 11:30:29;;;;;;;5.53;2.65;;;;;;;;;;5040469;28;21253;-59
2021/07/06 11:33:17;;;;;;;2.72;2.33;;;;;;;;;;5041756;28;20198;-59
2021/07/06 11:35:55;;;;;;;4.70;2.30;;;;;;;;;;5048762;28;20182;-59
2021/07/06 11:38:37;;;;;;;5.40;2.78;;;;;;;;;;5032267;28;20224;-61
2021/07/06 11:41:05;;;;;;;3.88;2.53;;;;;;;;;;5042201;28;20226;-60
2021/07/06 11:43:32;;;;;;;5.10;2.83;;;;;;;;;;5037324;28;20239;-58
2021/07/06 11:46:02;;;;;;;5.53;3.53;;;;;;;;;;5034569;28;20641;-60
2021/07/06 11:48:30;;;;;;;9.98;3.08;;;;;;;;;;5036882;28;20256;-59
2021/07/06 11:50:57;;;;;;;4.03;2.55;;;;;;;;;;5034851;28;20622;-58
2021/07/06 11:53:26;;;;;;;2.47;2.28;;;;;;;;;;5034614;28;20201;-58
2021/07/06 11:55:54;;;;;;;5.03;2.60;;;;;;;;;;5048572;28;20186;-61
2021/07/06 11:58:27;;;;;;;4.03;2.70;;;;;;;;;;5027869;28;20194;-61
2021/07/06 12:00:55;;;;;;;4.93;2.83;;;;;;;;;;5047803;28;20212;-59
2021/07/06 12:03:28;;;;;;;6.63;3.22;;;;;;;;;;5029620;28;20568;-59
2021/07/06 12:05:59;;;;;;;6.97;3.47;;;;;;;;;;5028624;28;20206;-60
2021/07/06 12:08:27;;;;;;;6.90;2.92;;;;;;;;;;5047767;28;20213;-61
2021/07/06 12:10:57;;;;;;;6.70;3.15;;;;;;;;;;5045386;28;20289;-60
2021/07/06 12:13:23;;;;;;;5.20;3.65;;;;;;;;;;5034820;28;20650;-60
2021/07/06 12:15:50;;;;;;;3.88;3.45;;;;;;;;;;5043785;28;20244;-62
2021/07/06 12:18:16;;;;;;;4.50;3.85;;;;;;;;;;5040623;28;20209;-58
2021/07/06 12:20:51;;;;;;;6.60;5.05;;;;;;;;;;5047076;28;20638;-60
2021/07/06 12:23:16;;;;;;;8.07;4.72;;;;;;;;;;5035724;28;20194;-61
2021/07/06 12:25:42;;;;;;;4.82;4.18;;;;;;;;;;5036704;28;20211;-59
2021/07/06 12:28:07;;;;;;;4.85;3.50;;;;;;;;;;5028591;28;20775;-60
2021/07/06 12:30:32;;;;;;;4.45;2.78;;;;;;;;;;5034109;28;20193;-59
2021/07/06 12:33:08;;;;;;;5.25;2.10;;;;;;;;;;5035224;28;20269;-60
2021/07/06 12:35:34;;;;;;;1.35;1.23;;;;;;;;;;5045312;28;20688;-59
2021/07/06 12:38:03;;;;;;;5.10;1.77;;;;;;;;;;5046646;28;20182;-59
2021/07/06 12:40:29;;;;;;;1.88;1.60;;;;;;;;;;5045989;28;20186;-59
2021/07/06 12:42:56;;;;;;;1.17;1.08;;;;;;;;;;5027610;28;20216;-61
2021/07/06 12:45:21;;;;;;;3.97;1.48;;;;;;;;;;5046160;28;20185;-61
2021/07/06 12:47:46;;;;;;;1.40;1.27;;;;;;;;;;5044234;28;20223;-61
2021/07/06 12:50:21;;;;;;;1.45;1.05;;;;;;;;;;5039740;28;20625;-60
2021/07/06 12:52:52;;;;;;;0.90;0.90;;;;;;;;;;5041626;28;20351;-59
2021/07/06 12:55:28;;;;;;;1.60;1.23;;;;;;;;;;5036955;28;20208;-58
2021/07/06 12:58:14;;;;;;;1.42;1.20;;;;;;;;;;5031363;28;20185;-60
2021/07/06 13:00:41;;;;;;;0.90;0.90;;;;;;;;;;5037003;28;20199;-58
2021/07/06 13:03:16;;;;;;;0.80;0.80;;;;;;;;;;5035582;28;20186;-59
2021/07/06 13:05:47;;;;;;;0.73;0.70;;;;;;;;;;5038590;28;20182;-59
2021/07/06 13:08:20;;;;;;;0.95;0.90;;;;;;;;;;5036574;28;20256;-59
2021/07/06 13:10:45;;;;;;;1.38;1.00;;;;;;;;;;5040030;28;20220;-59
2021/07/06 13:13:13;;;;;;;0.80;0.80;;;;;;;;;;5032513;28;20191;-60
2021/07/06 13:15:44;;;;;;;0.70;0.70;;;;;;;;;;5037026;28;20198;-60
2021/07/06 13:18:19;;;;;;;1.15;0.90;;;;;;;;;;5038270;28;20667;-62
2021/07/06 13:20:46;;;;;;;1.83;1.17;;;;;;;;;;5044426;28;20240;-59
2021/07/06 13:23:12;;;;;;;1.95;1.55;;;;;;;;;;5034382;28;20577;-60
2021/07/06 13:25:40;;;;;;;1.15;0.90;;;;;;;;;;5035939;28;20191;-58
2021/07/06 13:28:07;;;;;;;1.40;1.10;;;;;;;;;;5050603;28;20225;-60
2021/07/06 13:30:35;;;;;;;2.45;1.48;;;;;;;;;;5039884;28;20193;-60
2021/07/06 13:33:04;;;;;;;1.17;1.08;;;;;;;;;;5049248;28;20204;-59
2021/07/06 13:35:29;;;;;;;1.20;1.10;;;;;;;;;;5041584;28;20206;-57
2021/07/06 13:37:55;;;;;;;1.70;1.30;;;;;;;;;;5030165;28;20221;-60
2021/07/06 13:40:20;;;;;;;2.20;1.40;;;;;;;;;;5049066;28;20194;-59
2021/07/06 13:42:46;;;;;;;2.72;1.58;;;;;;;;;;5042285;28;20206;-58
2021/07/06 13:45:17;;;;;;;1.92;1.60;;;;;;;;;;5043319;28;20449;-61
2021/07/06 13:47:43;;;;;;;2.28;1.70;;;;;;;;;;5049993;28;20220;-60
2021/07/06 13:50:12;;;;;;;3.10;1.85;;;;;;;;;;5045578;28;20264;-60
2021/07/06 13:52:37;;;;;;;1.80;1.70;;;;;;;;;;5042808;28;20206;-60
2021/07/06 13:55:04;;;;;;;2.70;1.58;;;;;;;;;;5030013;28;20678;-60
2021/07/06 13:57:31;;;;;;;1.77;1.02;;;;;;;;;;5044946;28;20177;-61
2021/07/06 13:59:57;;;;;;;5.05;1.50;;;;;;;;;;5043134;28;20182;-60
2021/07/06 14:02:22;;;;;;;2.28;1.30;;;;;;;;;;5030746;28;20283;-59
2021/07/06 14:04:48;;;;;;;1.88;1.40;;;;;;;;;;5046514;28;20771;-59
2021/07/06 14:07:15;;;;;;;2.92;1.50;;;;;;;;;;5049682;28;20202;-58
2021/07/06 14:09:41;;;;;;;1.98;1.30;;;;;;;;;;5049398;28;20193;-60
2021/07/06 14:12:06;;;;;;;1.13;1.02;;;;;;;;;;5045750;28;20225;-58
2021/07/06 14:14:31;;;;;;;0.80;0.80;;;;;;;;;;5026215;28;20186;-58
2021/07/06 14:16:57;;;;;;;1.55;0.90;;;;;;;;;;5040287;28;20284;-61
2021/07/06 14:19:22;;;;;;;1.10;1.00;;;;;;;;;;5035638;28;20212;-59
2021/07/06 14:21:48;;;;;;;1.33;1.23;;;;;;;;;;5037881;28;20218;-59
2021/07/06 14:24:15;;;;;;;0.85;0.73;;;;;;;;;;5047658;28;20186;-60
2021/07/06 14:26:41;;;;;;;1.65;0.93;;;;;;;;;;5030894;28;20186;-61
2021/07/06 14:29:06;;;;;;;1.33;0.90;;;;;;;;;;5043529;28;20212;-59
2021/07/06 14:31:32;;;;;;;1.65;1.10;;;;;;;;;;5035833;28;20565;-59
2021/07/06 14:33:57;;;;;;;1.70;1.00;;;;;;;;;;5036936;28;20209;-59
2021/07/06 14:36:23;;;;;;;2.20;1.10;;;;;;;;;;5030183;28;20812;-60
2021/07/06 14:38:48;;;;;;;1.30;1.10;;;;;;;;;;5046909;28;20229;-59
2021/07/06 14:41:15;;;;;;;0.85;0.85;;;;;;;;;;5048521;28;20209;-59
2021/07/06 14:43:42;;;;;;;1.85;0.80;;;;;;;;;;5029118;28;20190;-61
2021/07/06 14:46:07;;;;;;;3.20;1.10;;;;;;;;;;5034372;28;20193;-58